Informes METAR cercanos


LEVC - Manises, Valencia, ESPAÑA
Distance from station: NNE 72km
Actualización: 29/06/2022 17:00
Algunas nubes
Algunas nubes
 Viento del ESE
Viento: ESE 22 km/h
Temperatura: 29°C
Índice de calor: 30°C
Rocío: 19°C
Humedad: 55%
Barómetro: 1011 hPa
Clouds: Algunas nubes
Visibility: 10 km
Cloud details: Algunas nubes 762 m
2022/06/29 15:00 LEVC 291500Z 12012KT 080V140 9999 FEW025 29/19 Q1011 NOSIG
LEAL - El Altet, Alicante, ESPAÑA
Distance from station: S 70km
Actualización: 29/06/2022 17:00
Despejado
Despejado
 Viento del ESE
Viento: ESE 17 km/h
Temperatura: 28°C
Índice de calor: 29°C
Rocío: 20°C
Humedad: 62%
Barómetro: 1013 hPa
Resumen: Despejado
Visibility: Mas de 10 km
2022/06/29 15:00 LEAL 291500Z 12009KT 080V170 CAVOK 28/20 Q1013 NOSIG
 
LELC - San Javier, Murcia, ESPAÑA
Distance from station: SSO 188km
Actualización: 29/06/2022 17:00
Despejado
Despejado
 Viento del ESE
Viento: ESE 15 km/h
Temperatura: 28°C
Índice de calor: 30°C
Rocío: 22°C
Humedad: 70%
Barómetro: 1013 hPa
Resumen: Despejado
Visibility: Mas de 10 km
2022/06/29 15:00 LELC 291500Z 11008KT 070V150 CAVOK 28/22 Q1013 NOSIG
LEAB - Los Llanos, Albacete, ESPAÑA
Distance from station: O 143km
Actualización: 29/06/2022 17:00
Despejado
Despejado
 Viento del SE
Viento: SE 17 km/h
Temperatura: 33°C
Rocío: 10°C
Humedad: 24%
Barómetro: 1013 hPa
Resumen: Despejado
Visibility: Mas de 10 km
2022/06/29 15:00 LEAB 291500Z 13009KT 090V200 CAVOK 33/10 Q1013 NOSIG